Time;durP1;ratioP1;P1;durP2;ratioP2;P2;SDS_P1;SDS_P2;PMS_P1;PMS_P2;Temp;Humidity;BMP_temperature;BMP_pressure;BME280_temperature;BME280_humidity;BME280_pressure;Samples;Min_cycle;Max_cycle;Signal;HPM_P1;HPM_P2
2022/05/22 00:00:11;;;;;;;111.07;104.70;;;13.20;99.90;;;12.27;100.00;100629.03;4901906;29;20283;-60
2022/05/22 00:02:41;;;;;;;116.85;109.88;;;13.00;99.90;;;12.61;100.00;100669.88;4878033;29;20227;-60
2022/05/22 00:05:15;;;;;;;115.18;107.78;;;13.00;99.90;;;12.25;100.00;100646.69;4888253;29;20219;-61
2022/05/22 00:08:14;;;;;;;107.32;102.15;;;12.90;99.90;;;12.16;100.00;100674.03;4890514;29;20220;-60
2022/05/22 00:10:42;;;;;;;127.30;118.80;;;12.80;99.90;;;12.25;100.00;100699.72;4889420;29;20235;-61
2022/05/22 00:13:10;;;;;;;131.43;123.28;;;12.80;99.90;;;12.38;100.00;100688.31;4882946;29;20201;-61
2022/05/22 00:16:36;;;;;;;143.70;135.10;;;12.80;99.90;;;12.33;100.00;100684.75;4914178;29;20212;-60
2022/05/22 00:18:27;;;;;;;153.35;145.18;;;12.80;99.90;;;12.37;100.00;100685.66;4870231;29;20217;-61
2022/05/22 00:20:55;;;;;;;255.88;242.20;;;;;;;12.12;100.00;100689.91;4899461;29;20239;-61
2022/05/22 00:23:24;;;;;;;264.30;251.50;;;12.80;99.90;;;12.33;100.00;100721.00;4904063;29;20232;-61
2022/05/22 00:25:56;;;;;;;209.10;198.18;;;12.80;99.90;;;12.57;100.00;100714.94;4850536;29;20217;-60
2022/05/22 00:28:24;;;;;;;176.48;167.80;;;12.80;99.90;;;12.35;100.00;100698.03;4914043;29;20205;-61
2022/05/22 00:30:52;;;;;;;166.68;157.65;;;12.80;99.90;;;12.25;100.00;100690.88;4870673;29;20241;-60
2022/05/22 00:33:20;;;;;;;164.88;155.40;;;12.80;99.90;;;12.35;100.00;100698.03;4902118;29;20213;-61
2022/05/22 00:35:48;;;;;;;138.88;131.18;;;12.80;99.90;;;12.03;100.00;100719.00;4899458;29;20216;-61
2022/05/22 00:38:16;;;;;;;143.38;136.57;;;12.70;99.90;;;12.27;100.00;100737.75;4886632;29;20208;-60
2022/05/22 00:40:45;;;;;;;141.88;134.50;;;12.60;99.90;;;12.45;100.00;100729.03;4892218;29;20244;-61
2022/05/22 00:43:31;;;;;;;140.57;133.43;;;12.70;99.90;;;12.52;100.00;100717.56;4902100;29;20247;-61
2022/05/22 00:46:01;;;;;;;139.30;131.40;;;12.80;99.90;;;12.38;100.00;100712.19;4854976;29;20213;-61
2022/05/22 00:48:29;;;;;;;122.10;115.72;;;12.80;99.90;;;12.38;100.00;100713.94;4871598;29;20207;-61
2022/05/22 00:51:52;;;;;;;145.93;135.80;;;12.80;99.90;;;12.43;100.00;100734.31;4873298;29;20237;-61
2022/05/22 00:54:30;;;;;;;132.45;124.13;;;12.80;99.90;;;12.47;100.00;100738.75;4863306;29;20220;-61
2022/05/22 00:57:09;;;;;;;115.70;109.38;;;12.70;99.90;;;12.58;100.00;100722.91;4857420;29;20853;-61
2022/05/22 00:59:46;;;;;;;119.43;112.80;;;12.70;99.90;;;12.39;100.00;100724.56;4870527;29;20240;-60
2022/05/22 01:02:15;;;;;;;113.20;107.47;;;12.70;99.90;;;12.29;100.00;100740.41;4882510;29;20207;-60
2022/05/22 01:04:46;;;;;;;113.60;107.15;;;12.60;99.90;;;12.26;100.00;100764.25;4885255;29;20348;-61
2022/05/22 01:07:14;;;;;;;104.20;98.18;;;12.60;99.90;;;12.21;100.00;100772.19;4867984;29;20667;-61
2022/05/22 01:09:42;;;;;;;98.10;92.53;;;12.60;99.90;;;12.16;100.00;100781.88;4902350;29;20231;-60
2022/05/22 01:12:19;;;;;;;90.90;85.82;;;12.50;99.90;;;12.26;100.00;100786.38;4918328;29;20215;-61
2022/05/22 01:14:56;;;;;;;82.53;77.57;;;12.50;99.90;;;11.88;100.00;100785.16;4916194;29;20229;-60
2022/05/22 01:17:24;;;;;;;85.32;79.10;;;12.50;99.90;;;11.71;100.00;100812.34;4902341;29;20213;-61
2022/05/22 01:19:59;;;;;;;90.85;83.80;;;12.30;99.90;;;11.90;100.00;100829.34;4888281;29;20251;-61
2022/05/22 01:22:29;;;;;;;74.85;71.20;;;12.30;99.90;;;11.98;100.00;100827.66;4882019;29;20205;-61
2022/05/22 01:24:58;;;;;;;79.00;72.90;;;12.30;99.90;;;11.99;100.00;100808.22;4889052;29;20235;-61
2022/05/22 01:27:27;;;;;;;79.18;74.18;;;12.30;99.90;;;11.83;100.00;100809.84;4863148;29;20220;-61
2022/05/22 01:30:12;;;;;;;76.40;71.60;;;12.20;99.90;;;11.99;100.00;100805.56;4886894;29;20232;-60
2022/05/22 01:32:45;;;;;;;71.10;67.32;;;12.20;99.90;;;11.85;100.00;100797.50;4888165;29;20216;-60
2022/05/22 01:35:19;;;;;;;90.30;83.97;;;12.20;99.90;;;11.41;100.00;100831.41;4886525;29;20220;-60
2022/05/22 01:37:49;;;;;;;101.07;92.85;;;12.10;99.90;;;11.44;100.00;100835.84;4875950;29;20211;-61
2022/05/22 01:40:19;;;;;;;93.82;87.47;;;12.00;99.90;;;11.46;100.00;100845.56;4876910;29;20232;-61
2022/05/22 01:42:51;;;;;;;89.22;83.07;;;11.90;99.90;;;11.49;100.00;100853.56;4875253;29;20220;-61
2022/05/22 01:45:24;;;;;;;89.32;82.60;;;11.90;99.90;;;11.16;100.00;100840.78;4872722;29;20241;-61
2022/05/22 01:47:54;;;;;;;87.47;81.40;;;11.90;99.90;;;11.20;100.00;100853.19;4904246;29;20208;-61
2022/05/22 01:50:32;;;;;;;83.53;78.35;;;11.80;99.90;;;11.03;100.00;100853.84;4890349;29;20240;-61
2022/05/22 01:53:00;;;;;;;102.18;96.15;;;11.70;99.90;;;11.00;100.00;100870.56;4884116;29;20209;-61
2022/05/22 01:55:29;;;;;;;99.95;93.82;;;11.60;99.90;;;10.91;100.00;100878.38;4883995;29;20217;-60
2022/05/22 01:58:07;;;;;;;94.03;87.22;;;11.50;99.90;;;11.18;100.00;100875.22;4870347;29;20229;-61
2022/05/22 02:00:45;;;;;;;90.85;85.07;;;11.50;99.90;;;11.18;100.00;100867.28;4865010;29;20232;-61
2022/05/22 02:03:14;;;;;;;96.15;89.35;;;11.50;99.90;;;11.27;100.00;100864.75;4902620;29;20209;-61
2022/05/22 02:05:43;;;;;;;92.93;86.40;;;11.60;99.90;;;11.16;100.00;100867.25;4854445;29;20425;-60
2022/05/22 02:08:24;;;;;;;92.13;85.72;;;11.50;99.90;;;11.10;100.00;100867.19;4885055;29;20216;-61
2022/05/22 02:10:58;;;;;;;82.60;77.30;;;11.50;99.90;;;11.03;100.00;100860.03;4906977;29;20240;-60
2022/05/22 02:13:39;;;;;;;87.78;80.72;;;10.40;99.90;;;11.12;100.00;100860.16;4915967;29;20209;-60
2022/05/22 02:16:09;;;;;;;78.72;72.65;;;11.50;99.90;;;10.95;100.00;100879.31;4883553;29;20223;-61
2022/05/22 02:18:37;;;;;;;82.72;76.63;;;11.50;99.90;;;10.89;100.00;100886.28;4873062;29;20224;-61
2022/05/22 02:21:06;;;;;;;79.85;74.10;;;11.40;99.90;;;10.94;100.00;100899.59;4869122;29;20233;-62
2022/05/22 02:23:35;;;;;;;84.82;79.50;;;11.40;99.90;;;10.84;100.00;100910.91;4886275;29;20217;-61
2022/05/22 02:26:09;;;;;;;85.18;78.80;;;11.30;99.90;;;10.73;100.00;100902.78;4890783;29;20209;-61
2022/05/22 02:28:38;;;;;;;76.97;71.80;;;11.30;99.90;;;10.76;100.00;100900.19;4883923;29;20224;-60
2022/05/22 02:31:08;;;;;;;78.70;73.40;;;11.30;99.90;;;10.88;100.00;100900.38;4886859;29;20243;-61
2022/05/22 02:33:36;;;;;;;81.00;75.22;;;11.20;99.90;;;11.03;100.00;100893.53;4890013;29;20216;-60
2022/05/22 02:36:10;;;;;;;74.03;68.93;;;11.30;99.90;;;11.00;100.00;100877.63;4903796;29;20217;-60
2022/05/22 02:38:38;;;;;;;80.82;74.60;;;11.30;99.90;;;10.84;100.00;100881.78;4871554;29;20208;-60
2022/05/22 02:41:12;;;;;;;73.32;68.38;;;11.80;99.90;;;10.88;100.00;100889.81;4908292;29;20224;-60
2022/05/22 02:43:43;;;;;;;79.25;73.57;;;11.20;99.90;;;10.98;100.00;100904.06;4904068;29;20224;-60
2022/05/22 02:46:19;;;;;;;80.63;74.38;;;11.20;99.90;;;11.01;100.00;100898.81;4886973;29;20661;-61
2022/05/22 02:48:51;;;;;;;74.43;68.78;;;11.30;99.90;;;10.76;100.00;100888.72;4887061;29;20233;-61
2022/05/22 02:51:23;;;;;;;80.65;74.22;;;11.20;99.90;;;10.74;100.00;100888.69;4869827;29;20697;-60
2022/05/22 02:53:54;;;;;;;78.22;73.22;;;11.20;99.90;;;10.51;100.00;100879.50;4871207;29;20217;-60
2022/05/22 02:56:28;;;;;;;77.45;71.95;;;11.10;99.90;;;10.55;100.00;100881.34;4860098;29;20227;-60
2022/05/22 02:58:58;;;;;;;77.30;72.72;;;11.10;99.90;;;10.57;100.00;100898.13;4871136;29;20216;-60
2022/05/22 03:01:29;;;;;;;78.82;73.88;;;11.00;99.90;;;10.67;100.00;100904.44;4896727;29;20224;-60
2022/05/22 03:03:57;;;;;;;78.55;73.05;;;11.00;99.90;;;10.78;100.00;100897.56;4871567;29;20443;-60
2022/05/22 03:06:38;;;;;;;76.45;71.18;;;11.00;99.90;;;10.93;100.00;100894.28;4872708;29;20216;-60
2022/05/22 03:09:15;;;;;;;75.40;70.43;;;11.10;99.90;;;10.66;100.00;100895.63;4870265;29;20209;-61
2022/05/22 03:11:49;;;;;;;72.20;68.18;;;11.10;99.90;;;10.74;100.00;100895.75;4877201;29;20217;-60
2022/05/22 03:14:17;;;;;;;76.38;71.22;;;11.10;99.90;;;10.74;100.00;100912.50;4873243;29;20216;-60
2022/05/22 03:16:46;;;;;;;75.13;70.20;;;11.10;99.90;;;10.83;100.00;100917.06;4886781;29;20215;-60
2022/05/22 03:19:29;;;;;;;80.57;74.97;;;11.10;99.90;;;10.93;100.00;100918.09;4887183;29;20235;-60
2022/05/22 03:21:58;;;;;;;83.85;78.32;;;11.10;99.90;;;10.61;100.00;100931.69;4884467;29;20224;-60
2022/05/22 03:24:26;;;;;;;84.03;79.18;;;11.10;99.90;;;10.44;100.00;100938.44;4872789;29;20236;-60
2022/05/22 03:26:54;;;;;;;86.80;80.95;;;11.00;99.90;;;10.47;100.00;100944.69;4877875;29;20240;-60
2022/05/22 03:29:23;;;;;;;80.32;75.00;;;10.90;99.90;;;10.54;100.00;100943.94;4897100;29;20237;-61
2022/05/22 03:31:55;;;;;;;87.53;81.75;;;10.90;99.90;;;10.58;100.00;100934.28;4896598;29;20213;-60
2022/05/22 03:34:24;;;;;;;87.15;81.28;;;10.90;99.90;;;10.61;100.00;100939.63;4874634;29;20209;-60
2022/05/22 03:36:56;;;;;;;88.05;82.10;;;10.80;99.90;;;10.66;100.00;100943.25;4874056;29;20214;-60
2022/05/22 03:39:24;;;;;;;91.75;85.55;;;10.80;99.90;;;10.61;100.00;100936.97;4886589;29;20239;-60
2022/05/22 03:41:53;;;;;;;87.28;81.05;;;10.80;99.90;;;10.54;100.00;100956.25;4911322;29;20209;-60
2022/05/22 03:44:24;;;;;;;89.25;84.07;;;10.80;99.90;;;10.44;100.00;100949.91;4873703;29;20247;-60
2022/05/22 03:46:52;;;;;;;93.47;85.90;;;10.90;99.90;;;10.33;100.00;100971.72;4854110;29;20223;-60
2022/05/22 03:49:30;;;;;;;90.32;84.63;;;10.70;99.90;;;10.46;100.00;100981.69;4878326;29;20313;-61
2022/05/22 03:51:59;;;;;;;89.13;82.15;;;10.70;99.90;;;10.58;100.00;100974.84;4885801;29;20577;-60
2022/05/22 03:54:27;;;;;;;94.53;87.00;;;10.70;99.90;;;10.67;100.00;100976.75;4858623;29;20205;-61
2022/05/22 03:56:59;;;;;;;96.22;88.13;;;10.80;99.90;;;10.51;100.00;100980.00;4882634;29;20217;-60
2022/05/22 03:59:32;;;;;;;94.60;88.68;;;10.70;99.90;;;10.47;100.00;100992.28;4883828;29;20236;-60
2022/05/22 04:02:04;;;;;;;90.15;84.22;;;10.70;99.90;;;10.49;100.00;100994.97;4870767;29;20215;-60
2022/05/22 04:04:33;;;;;;;97.80;90.50;;;10.70;99.90;;;10.55;100.00;101000.34;4868511;29;20215;-60
2022/05/22 04:07:12;;;;;;;97.70;90.57;;;10.70;99.90;;;10.62;100.00;101001.34;4882911;29;20246;-60
2022/05/22 04:09:40;;;;;;;93.22;86.40;;;10.70;99.90;;;10.62;100.00;100993.41;4896541;29;20248;-60
2022/05/22 04:12:13;;;;;;;105.13;97.28;;;10.70;99.90;;;10.67;100.00;100994.38;4877343;29;20707;-60
2022/05/22 04:14:44;;;;;;;97.72;90.60;;;10.80;99.90;;;10.65;100.00;101004.06;4895183;29;20212;-60
2022/05/22 04:17:14;;;;;;;95.18;90.20;;;10.80;99.90;;;10.76;100.00;101018.34;4896942;29;20228;-60
2022/05/22 04:19:42;;;;;;;107.50;100.07;;;10.80;99.90;;;10.84;100.00;101022.91;4897842;29;20239;-60
2022/05/22 04:22:13;;;;;;;107.63;101.53;;;10.90;99.90;;;10.81;100.00;101017.56;4860302;29;20208;-61
2022/05/22 04:27:38;;;;;;;107.70;100.22;;;10.90;99.90;;;10.92;100.00;101019.50;4897265;29;20701;-60
2022/05/22 04:30:17;;;;;;;113.25;104.95;;;11.00;99.90;;;11.08;100.00;101033.03;4891027;29;20240;-61
2022/05/22 04:32:52;;;;;;;107.80;100.28;;;11.00;99.90;;;11.13;100.00;101036.63;4878051;29;20650;-60
2022/05/22 04:35:22;;;;;;;110.20;102.65;;;11.10;99.90;;;11.27;100.00;101034.22;4880960;29;20617;-60
2022/05/22 04:37:51;;;;;;;111.05;104.38;;;11.20;99.90;;;11.37;100.00;101006.13;4887403;29;20564;-60
2022/05/22 04:40:19;;;;;;;109.55;103.32;;;11.30;99.90;;;11.41;100.00;100995.59;4881865;29;20242;-60
2022/05/22 04:43:00;;;;;;;100.53;94.40;;;11.40;99.90;;;11.45;100.00;100983.28;4881294;29;20216;-61
2022/05/22 04:45:36;;;;;;;95.15;89.60;;;11.40;99.90;;;11.51;100.00;100978.97;4890178;29;20220;-61
2022/05/22 04:48:23;;;;;;;102.55;95.38;;;11.40;99.90;;;11.62;100.00;100957.91;4892841;29;20216;-61
2022/05/22 04:51:05;;;;;;;111.55;103.80;;;11.50;99.90;;;11.70;100.00;100963.31;4891336;29;20237;-60
2022/05/22 04:53:47;;;;;;;123.57;115.38;;;11.60;99.90;;;11.73;100.00;100940.41;4884840;29;20676;-60
2022/05/22 04:56:21;;;;;;;109.00;101.47;;;11.70;99.90;;;11.78;100.00;100957.31;4916324;29;20708;-60
2022/05/22 04:58:56;;;;;;;108.47;101.25;;;11.80;99.90;;;11.85;100.00;100967.09;4900039;29;20207;-60
2022/05/22 05:01:26;;;;;;;114.13;106.53;;;11.80;99.90;;;11.92;100.00;100975.13;4894816;29;20239;-60
2022/05/22 05:04:00;;;;;;;115.20;107.20;;;11.80;99.90;;;11.91;100.00;100981.31;4866479;29;20246;-60
2022/05/22 05:06:30;;;;;;;120.47;112.95;;;11.80;99.90;;;12.03;100.00;100971.72;4878641;29;20236;-60
2022/05/22 05:09:02;;;;;;;114.22;107.15;;;11.90;99.90;;;12.25;100.00;100978.16;4880690;29;20212;-60
2022/05/22 05:11:34;;;;;;;124.78;116.85;;;12.00;99.90;;;12.33;100.00;100954.38;4866291;29;20223;-60
2022/05/22 05:14:04;;;;;;;114.40;107.55;;;12.10;99.90;;;12.36;100.00;100928.78;4901833;29;20216;-59
2022/05/22 05:16:32;;;;;;;117.47;111.03;;;12.10;99.90;;;12.46;100.00;100916.47;4872342;29;20220;-60
2022/05/22 05:19:06;;;;;;;137.25;128.18;;;12.30;99.90;;;12.59;100.00;100909.53;4892378;29;20208;-60
2022/05/22 05:21:39;;;;;;;131.32;124.57;;;12.30;99.90;;;12.71;100.00;100915.81;4886985;29;20269;-60
2022/05/22 05:24:10;;;;;;;139.25;130.93;;;12.40;99.90;;;12.83;100.00;100926.53;4877193;29;20215;-59
2022/05/22 05:26:39;;;;;;;132.60;124.57;;;12.40;99.90;;;13.04;100.00;100924.94;4874833;29;20229;-60
2022/05/22 05:29:14;;;;;;;133.75;125.15;;;12.50;99.90;;;13.22;100.00;100943.69;4903490;29;20231;-60
2022/05/22 05:31:44;;;;;;;134.73;126.85;;;12.60;99.90;;;13.36;100.00;100934.03;4898889;29;20233;-60
2022/05/22 05:34:16;;;;;;;134.15;126.18;;;12.70;99.90;;;13.58;100.00;100918.19;4870458;29;20248;-60
2022/05/22 05:36:53;;;;;;;145.23;136.90;;;12.80;99.90;;;13.72;100.00;100908.50;4885375;29;20227;-60
2022/05/22 05:39:28;;;;;;;152.27;143.70;;;12.90;99.90;;;13.93;100.00;100916.53;4871172;29;20227;-60
2022/05/22 05:41:59;;;;;;;153.02;144.52;;;13.00;99.90;;;14.09;100.00;100890.88;4884856;29;20705;-60
2022/05/22 05:44:33;;;;;;;165.13;155.73;;;13.20;99.90;;;14.15;100.00;100866.06;4877296;29;20600;-61
2022/05/22 05:47:15;;;;;;;152.73;144.98;;;13.40;99.90;;;14.29;100.00;100841.25;4883615;29;20231;-61
2022/05/22 05:50:21;;;;;;;166.73;156.90;;;13.70;99.90;;;14.45;100.00;100834.22;4879780;29;20240;-60
2022/05/22 05:53:05;;;;;;;161.07;152.05;;;13.70;99.90;;;14.55;100.00;100838.66;4868811;29;20216;-61
2022/05/22 05:55:54;;;;;;;163.07;153.82;;;13.80;99.90;;;14.66;100.00;100825.31;4890133;29;20307;-59
2022/05/22 05:58:40;;;;;;;161.40;152.18;;;14.00;99.90;;;14.83;100.00;100819.97;4882672;29;20220;-61
2022/05/22 06:01:33;;;;;;;166.27;157.10;;;14.10;99.90;;;14.84;100.00;100803.09;4876253;29;20259;-61
2022/05/22 06:04:02;;;;;;;155.80;147.65;;;14.20;99.90;;;15.11;100.00;100815.44;4865656;29;20701;-61
2022/05/22 06:06:30;;;;;;;164.93;155.85;;;14.30;99.90;;;15.23;100.00;100794.97;4859184;29;20236;-61
2022/05/22 06:09:00;;;;;;;167.80;157.30;;;14.50;99.90;;;15.34;100.00;100790.47;4845629;29;20209;-61
2022/05/22 06:11:31;;;;;;;174.85;163.50;;;14.70;99.90;;;15.50;100.00;100793.06;4899427;29;20209;-61
2022/05/22 06:14:19;;;;;;;133.43;124.07;;;14.80;99.90;;;15.52;100.00;100783.28;4860260;29;20212;-61
2022/05/22 06:16:50;;;;;;;114.35;107.38;;;15.00;99.90;;;15.56;100.00;100769.94;4898293;29;20213;-61
2022/05/22 06:19:53;;;;;;;114.03;106.70;;;15.10;99.90;;;15.55;100.00;100741.50;4868729;29;20236;-61
2022/05/22 06:22:09;;;;;;;127.97;119.25;;;15.20;99.90;;;15.60;100.00;100736.19;4901704;29;20221;-61
2022/05/22 06:24:40;;;;;;;130.63;119.53;;;15.30;99.90;;;15.59;100.00;100721.06;4862100;29;20885;-61
2022/05/22 06:27:37;;;;;;;126.63;117.57;;;15.30;99.90;;;15.99;100.00;100741.25;4862298;29;20240;-61
2022/05/22 06:30:18;;;;;;;151.15;141.13;;;15.40;99.90;;;16.40;100.00;100760.44;4898067;29;20599;-61
2022/05/22 06:33:16;;;;;;;155.55;145.18;;;15.70;99.90;;;16.23;100.00;100721.47;4877141;29;20228;-61
2022/05/22 06:36:09;;;;;;;151.30;140.80;;;15.80;99.90;;;16.34;100.00;100713.34;4893499;29;20220;-61
2022/05/22 06:42:16;;;;;;;133.55;124.90;;;16.10;99.90;;;16.57;100.00;100708.66;4877740;29;20215;-61
2022/05/22 06:45:22;;;;;;;142.77;133.00;;;16.20;99.90;;;17.06;100.00;100700.09;4848273;29;20221;-61
2022/05/22 06:47:52;;;;;;;135.77;126.95;;;16.50;99.90;;;17.23;99.86;100686.50;4870450;29;20239;-61
2022/05/22 06:50:53;;;;;;;128.80;120.70;;;16.80;99.90;;;17.04;95.82;100615.53;4853654;29;20235;-61
2022/05/22 06:53:56;;;;;;;163.85;152.90;;;16.90;99.90;;;17.50;98.33;100677.19;4898614;29;20213;-61
2022/05/22 06:56:45;;;;;;;149.60;141.18;;;17.10;99.90;;;17.85;96.46;100663.28;4862586;29;20216;-61
2022/05/22 06:59:35;;;;;;;135.85;127.78;;;17.40;99.90;;;17.84;93.42;100590.16;4900197;29;20232;-61
2022/05/22 07:02:36;;;;;;;148.25;139.07;;;17.70;99.90;;;17.66;93.10;100549.47;4863299;29;20209;-61
2022/05/22 07:05:26;;;;;;;122.18;114.18;;;17.90;99.90;;;17.85;93.35;100569.66;4879778;29;20216;-61
2022/05/22 07:08:21;;;;;;;97.95;90.72;;;17.90;99.90;;;17.92;93.58;100569.50;4868553;29;20220;-61
2022/05/22 07:13:51;;;;;;;84.20;75.32;;;18.10;99.90;;;18.28;91.43;100542.06;4893002;29;20227;-61
2022/05/22 07:16:31;;;;;;;77.07;70.65;;;18.40;99.90;;;18.30;89.99;100516.16;4869391;29;20220;-60
2022/05/22 07:19:07;;;;;;;66.50;61.42;;;18.60;99.90;;;17.89;87.60;100427.75;4855830;29;20216;-61
2022/05/22 07:21:56;;;;;;;73.75;67.70;;;18.60;99.90;;;18.36;89.13;100484.78;4904909;29;20212;-61
2022/05/22 07:24:46;;;;;;;73.88;68.00;;;18.60;99.90;;;18.89;86.51;100450.53;4868946;29;20212;-61
2022/05/22 07:27:28;;;;;;;77.47;69.97;;;19.00;99.90;;;18.43;87.85;100403.38;4878367;29;20239;-61
2022/05/22 07:30:12;;;;;;;83.63;76.72;;;19.00;99.90;;;18.51;88.41;100422.84;4902564;29;20227;-62
2022/05/22 07:33:06;;;;;;;98.43;91.32;;;19.10;99.90;;;19.03;89.09;100485.91;4851143;29;20884;-61
2022/05/22 07:35:40;;;;;;;102.38;95.38;;;19.20;99.90;;;18.59;88.28;100414.63;4883258;29;20231;-60
2022/05/22 07:38:26;;;;;;;92.35;85.22;;;19.30;99.90;;;19.07;86.77;100428.63;4871057;29;20689;-61
2022/05/22 07:41:14;;;;;;;93.95;86.57;;;19.70;99.90;;;19.47;86.13;100452.56;4893027;29;20233;-61
2022/05/22 07:44:02;;;;;;;95.32;86.03;;;19.90;99.90;;;19.25;86.02;100405.81;4881975;29;20240;-58
2022/05/22 07:46:49;;;;;;;114.00;105.63;;;20.10;99.90;;;19.43;85.33;100391.00;4890674;29;20256;-60
2022/05/22 07:52:56;;;;;;;90.05;82.50;;;20.30;99.90;;;19.71;85.09;100401.91;4872910;29;21744;-61
2022/05/22 07:55:39;;;;;;;99.63;91.43;;;20.60;99.90;;;20.32;84.69;100414.34;4877761;29;20220;-61
2022/05/22 07:58:25;;;;;;;108.50;99.38;;;21.00;99.90;;;20.31;81.67;100331.16;4873366;29;20220;-61
2022/05/22 08:00:58;;;;;;;107.55;98.38;;;21.50;99.90;;;20.63;83.78;100370.41;4906277;29;20235;-62
2022/05/22 08:03:49;;;;;;;107.25;98.20;;;21.70;99.90;;;20.06;81.37;100250.53;4873700;29;20552;-63
2022/05/22 08:06:43;;;;;;;121.03;111.60;;;21.70;99.90;;;21.90;83.95;100421.50;4864996;29;20223;-60
2022/05/22 08:09:21;;;;;;;88.32;80.97;;;22.20;99.90;;;21.47;82.05;100329.88;4880525;29;20240;-60
2022/05/22 08:11:51;;;;;;;78.75;70.22;;;22.40;99.90;;;20.77;79.50;100167.47;4890894;29;20215;-59
2022/05/22 08:14:21;;;;;;;90.97;83.50;;;22.60;99.90;;;21.66;80.81;100291.44;4871709;29;20215;-61
2022/05/22 08:16:51;;;;;;;93.18;84.78;;;22.60;99.90;;;21.26;81.98;100249.03;4868190;29;20232;-61
2022/05/22 08:19:21;;;;;;;94.40;85.78;;;22.70;99.90;;;21.16;82.42;100235.97;4865916;29;20700;-64
2022/05/22 08:22:09;;;;;;;85.13;77.97;;;22.50;99.90;;;21.85;78.59;100183.91;4868659;29;20219;-63
2022/05/22 08:24:58;;;;;;;76.40;69.97;;;23.10;99.90;;;21.05;79.83;100121.63;4878236;29;20220;-61
2022/05/22 08:27:29;;;;;;;83.97;75.95;;;23.00;99.90;;;20.95;80.84;100116.66;4880861;29;20231;-64
2022/05/22 08:29:57;;;;;;;81.38;75.82;;;23.30;99.90;;;21.22;82.23;100171.19;4881164;29;20228;-64
2022/05/22 08:32:27;;;;;;;93.32;85.72;;;23.40;99.90;;;22.67;78.75;100255.88;4871752;29;20208;-65
2022/05/22 08:34:55;;;;;;;76.28;69.55;;;23.80;99.90;;;21.37;80.15;100114.13;4865269;29;20227;-65
2022/05/22 08:37:24;;;;;;;75.32;69.10;;;23.40;99.90;;;21.72;79.80;100156.63;4869176;29;20220;-64
2022/05/22 08:39:52;;;;;;;66.05;59.63;;;23.40;99.90;;;22.53;79.78;100236.75;4896392;29;20250;-63
2022/05/22 08:42:36;;;;;;;57.03;51.30;;;23.90;99.90;;;22.00;77.89;100107.88;4904477;29;20218;-64
2022/05/22 08:45:29;;;;;;;67.43;61.75;;;24.20;99.90;;;21.16;78.39;99997.50;4884751;29;20222;-65
2022/05/22 08:48:24;;;;;;;82.80;76.32;;;23.90;99.90;;;21.17;79.62;100050.34;4884925;29;20227;-64
2022/05/22 08:51:11;;;;;;;74.45;67.82;;;22.60;99.90;;;21.52;78.04;100058.81;4913024;28;20736;-64
2022/05/22 08:53:49;;;;;;;53.13;47.63;;;22.60;99.90;;;21.96;78.05;100094.59;4873308;29;20572;-64
2022/05/22 08:59:25;;;;;;;59.38;53.95;;;23.20;99.90;;;23.40;75.85;100172.59;4899177;29;20254;-64
2022/05/22 09:02:29;;;;;;;45.13;40.70;;;23.90;99.90;;;22.34;75.90;100031.03;4900875;29;20600;-65
2022/05/22 09:05:02;;;;;;;57.17;48.08;;;24.00;99.90;;;22.84;74.83;100065.56;4881459;29;20216;-64
2022/05/22 09:07:55;;;;;;;54.60;49.50;;;24.60;99.90;;;23.66;76.44;100164.16;4898880;29;20232;-65
2022/05/22 09:11:00;;;;;;;45.42;40.85;;;24.90;99.90;;;23.28;73.28;100020.25;4865468;29;20231;-65
2022/05/22 09:13:37;;;;;;;43.70;39.20;;;25.20;99.90;;;22.87;76.26;99989.94;4877181;29;20223;-65
2022/05/22 09:16:32;;;;;;;39.30;35.20;;;25.00;99.90;;;22.65;74.44;99938.84;4911208;29;20590;-63
2022/05/22 09:19:09;;;;;;;41.92;37.95;;;24.50;99.90;;;22.92;73.21;99945.63;4879416;29;20208;-64
2022/05/22 09:22:12;;;;;;;48.72;41.35;;;24.40;99.90;;;22.66;74.74;99909.13;4899305;29;20211;-64
2022/05/22 09:25:11;;;;;;;54.75;40.03;;;23.90;99.90;;;22.77;72.37;99895.13;4851274;29;20203;-64
2022/05/22 09:28:32;;;;;;;44.47;36.45;;;24.30;99.90;;;23.84;73.33;100012.03;4913392;29;20234;-63
2022/05/22 09:31:23;;;;;;;47.30;42.47;;;25.20;99.90;;;24.08;71.54;99977.44;4826718;29;20238;-64
2022/05/22 09:34:24;;;;;;;47.55;39.78;;;25.60;99.90;;;23.53;69.53;99850.75;4882261;29;20220;-61
2022/05/22 09:37:31;;;;;;;48.65;39.97;;;25.70;99.90;;;23.17;68.73;99787.94;4873991;29;20227;-63
2022/05/22 09:40:22;;;;;;;30.40;27.70;;;25.20;99.90;;;23.93;69.95;99899.94;4883563;29;20227;-63
2022/05/22 09:42:54;;;;;;;33.92;27.77;;;24.80;99.90;;;24.44;66.61;99876.41;4919050;29;20215;-64
2022/05/22 09:45:40;;;;;;;52.15;42.17;;;25.50;99.90;;;24.40;64.31;99773.03;4910582;29;20219;-64
2022/05/22 09:48:23;;;;;;;49.25;43.40;;;26.20;99.90;;;24.79;63.89;99771.66;4876648;29;20234;-64
2022/05/22 09:51:32;;;;;;;56.92;51.53;;;26.70;99.90;;;24.68;65.48;99764.16;4904820;29;20244;-64
2022/05/22 09:54:06;;;;;;;57.05;51.33;;;26.80;99.90;;;24.81;67.42;99785.97;4868227;29;20673;-63
2022/05/22 09:57:16;;;;;;;51.83;46.47;;;27.10;99.90;;;24.66;64.93;99695.78;4884847;29;20224;-62
2022/05/22 09:59:56;;;;;;;63.42;57.67;;;27.20;99.90;;;25.37;62.73;99757.28;4900368;29;20231;-62
2022/05/22 10:02:38;;;;;;;48.65;43.47;;;27.10;99.90;;;25.00;63.85;99682.97;4920167;29;20204;-62
2022/05/22 10:05:33;;;;;;;51.05;43.47;;;27.50;99.90;;;24.66;63.02;99598.47;4903261;29;20212;-62
2022/05/22 10:08:34;;;;;;;40.80;22.52;;;27.50;99.90;;;25.23;62.38;99657.16;4900643;29;20475;-63
2022/05/22 10:11:20;;;;;;;38.70;34.63;;;28.10;99.90;;;25.14;61.35;99578.31;4914533;29;20228;-62
2022/05/22 10:13:56;;;;;;;47.97;42.58;;;28.40;99.90;;;25.11;60.65;99556.00;4883143;29;20203;-63
2022/05/22 10:16:42;;;;;;;57.33;51.47;;;28.10;99.90;;;25.60;59.64;99601.50;4887678;29;20599;-63
2022/05/22 10:19:19;;;;;;;62.42;55.90;;;28.70;99.90;;;26.00;59.71;99603.31;4903914;29;20224;-62
2022/05/22 10:22:42;;;;;;;65.95;59.28;;;28.80;99.90;;;25.03;57.25;99387.91;4870296;29;20215;-64
2022/05/22 10:25:36;;;;;;;94.40;86.18;;;28.90;97.60;;;26.88;58.90;99656.00;4876340;29;20216;-63
2022/05/22 10:28:25;;;;;;;129.60;118.72;;;29.00;99.90;;;26.01;57.68;99437.13;4868987;29;20228;-64
2022/05/22 10:31:01;;;;;;;149.68;138.27;;;29.60;96.50;;;27.39;59.02;99637.03;4872750;29;20232;-63
2022/05/22 10:33:38;;;;;;;253.60;234.60;;;29.60;98.10;;;26.96;58.45;99541.50;4856842;29;20218;-64
2022/05/22 10:36:25;;;;;;;332.38;309.15;;;29.80;99.40;;;26.57;60.13;99502.72;4900493;29;20207;-62
2022/05/22 10:39:07;;;;;;;98.45;89.93;;;29.20;94.30;;;25.37;58.99;99327.81;4888810;29;20231;-63
2022/05/22 10:44:51;;;;;;;91.68;84.32;;;29.20;97.30;;;27.08;57.90;99533.38;4905554;29;20219;-64
2022/05/22 10:47:32;;;;;;;140.85;130.80;;;29.40;98.20;;;27.38;57.31;99499.53;4871219;29;20215;-65
2022/05/22 10:50:33;;;;;;;244.40;227.90;;;29.70;93.00;;;26.57;58.40;99380.69;4879744;29;20612;-64
2022/05/22 10:53:02;;;;;;;265.52;247.20;;;29.70;94.80;;;26.70;58.90;99391.50;4891050;29;20210;-64
2022/05/22 10:55:43;;;;;;;246.50;228.85;;;29.70;95.10;;;26.55;58.35;99352.84;4870656;29;20208;-63